DuBois Regional Airport
KDUJ : now visible

Airfield :











YOU CAN JOIN US ON...

 
LOGIN :

Register | Disclaimer

   EN    FR    IT 

 









Legend :    VFR   Marginal VFR   IFR   Intensive IFR   Very Intensive IFR
Visi :
Ceiling :
>= 8 km
>= 3000ft
5 to 8 km
1000 to 3000 ft
1500m to 5 km
500 to 1000 ft
800 to 1500m
200 to 500 ft
< 800m
< 200 ft
Symbols :   Thunderstorms  Fog  Heavy snow  Heavy precipitations  Wind > 20 kt






- Airport Elevation : 1817 ft
- IATA code : DUJ


KDUJ - DuBois Regional

CURRENT METAR :
  • 221053Z AUTO 13003KT 4SM BR OVC070 16/14 A3023 RMK AO2 SLP230 T01560144

EXPIRED METARs :
  • 221044Z AUTO 13003KT 3SM BR OVC070 16/14 A3023 RMK AO2 T01560144
  • 221032Z AUTO 11003KT 2SM BR OVC070 16/14 A3023 RMK AO2 VIS 1 1/2V3 T01560144
  • 221001Z AUTO 00000KT 1 3/4SM BR OVC070 16/14 A3023 RMK AO2 T01560144
  • 220953Z AUTO 00000KT 5SM BR OVC065 16/14 A3023 RMK AO2 SLP230 T01560144
  • 220853Z AUTO 13003KT 6SM BR FEW037 OVC065 16/15 A3022 RMK AO2 SLP227 T01610150 55002

TAF KDUJ
Valid from the 22 at 12:00 until the 23 at 12:00 UTC


221120Z 2212/2312 VRB02KT 4SM BR SCT025
FM221500 VRB05KT P6SM SCT050
FM230000 VRB03KT P6SM SKC
KZOB FIR / North America



MET'MAP, your aeronautical weather chart ! - Copyright ORBIFLY December 2007 - Disclaimer

ORBIFLY MET'MAP TEAM :

Programming & Development : Alexandra Zaïnal
Concept & original design : Baudouin d'Aumeries
Assistance for programming : Marc-Olivier Méhu
Technical & hardware support : Manuel Goepfert

Contact : metmap@orbifly.com




SOURCES & CREDITS :

   NOAA       Earth
Advisory